Airfield :
LOGIN :

Register | Disclaimer

   EN    FR    IT 

 










Legend :    VFR   Marginal VFR   IFR   Intensive IFR   Very Intensive IFR
Visi :
Ceiling :
>= 8 km
>= 3000ft
5 to 8 km
1000 to 3000 ft
1500m to 5 km
500 to 1000 ft
800 to 1500m
200 to 500 ft
< 800m
< 200 ft
Symbols :   Thunderstorms  Fog  Heavy snow  Heavy precipitations  Wind > 20 kt
SIGMETs :     Misc.  Thunderstorms  Icing  Turbulence  Mountain Waves  Volcanic Ashes







- Airport Elevation : 14 ft
- IATA code : BRE


EDDW - Bremen Neuenland

CURRENT METAR :
  • 201750Z 35007KT 320V020 9999 BKN028 BKN070 20/15 Q1019 NOSIG

EXPIRED METARs :
  • 201720Z 33005KT 9999 BKN028 BKN070 21/15 Q1018 NOSIG
  • 201650Z 29003KT 240V330 9999 SCT022 BKN050 21/15 Q1018 NOSIG
  • 201620Z 34005KT 300V360 9999 SCT020 BKN040 21/15 Q1018 NOSIG
  • 201550Z 31005KT 270V010 9999 FEW020 BKN040 21/16 Q1018 NOSIG
  • 201520Z 31008KT 280V340 9999 SCT020 BKN040 21/16 Q1018 NOSIG

TAF TAF EDDW
Valid from the 20 at 18:00 until the 21 at 18:00 UTC


201700Z 2018/2118 32003KT 9999 SCT025
PROB30
TEMPO 2104/2107 4500 -DZ BKN014
BECMG 2106/2108 11005KT
No reported NOTAMs for that airfield.



MET'MAP, your aeronautical weather chart ! - Copyright ORBIFLY December 2007 - Disclaimer

ORBIFLY MET'MAP TEAM :

Programming & Development : Alexandra Zaïnal
Concept & Development : Baudouin d'Aumeries
Co-Development & Prog : Marc-Olivier Méhu
Technical & hardware support : Manuel Goepfert

Contact : metmap@orbifly.com




SOURCES & CREDITS :

   NOAA